createdAt,value
2022-09-01T00:00:49.290Z,11.73
2022-09-01T00:03:53.786Z,11.10
2022-09-01T00:07:00.019Z,11.80
2022-09-01T00:10:07.025Z,11.80
2022-09-01T00:13:10.528Z,11.35
2022-09-01T00:16:15.654Z,11.13
2022-09-01T00:19:19.676Z,10.48
2022-09-01T00:22:24.405Z,10.48
2022-09-01T00:25:28.120Z,10.40
2022-09-01T00:28:33.836Z,10.75
2022-09-01T00:31:37.744Z,10.55
2022-09-01T00:34:41.733Z,11.23
2022-09-01T00:37:46.753Z,11.00
2022-09-01T00:40:50.175Z,11.75
2022-09-01T00:43:56.923Z,11.65
2022-09-01T00:47:01.055Z,10.82
2022-09-01T00:50:07.475Z,10.52
2022-09-01T00:53:12.296Z,11.10
2022-09-01T00:56:16.069Z,12.35
2022-09-01T00:59:22.265Z,13.43
2022-09-01T01:02:26.800Z,13.32
2022-09-01T01:05:35.328Z,13.80
2022-09-01T01:08:43.409Z,15.07
2022-09-01T01:11:47.667Z,15.27
2022-09-01T01:14:52.128Z,16.15
2022-09-01T01:17:56.056Z,16.13
2022-09-01T01:21:23.167Z,15.82
2022-09-01T01:24:29.646Z,15.60
2022-09-01T01:27:38.070Z,16.95
2022-09-01T01:30:52.438Z,15.60
2022-09-01T01:33:58.716Z,16.75
2022-09-01T01:37:02.140Z,16.02
2022-09-01T01:40:15.792Z,16.02
2022-09-01T01:43:21.916Z,15.48
2022-09-01T01:46:26.838Z,16.60
2022-09-01T01:49:31.261Z,15.48
2022-09-01T01:52:34.896Z,15.43
2022-09-01T01:55:43.868Z,17.75
2022-09-01T01:58:47.555Z,16.88
2022-09-01T02:01:52.873Z,16.52
2022-09-01T02:04:56.307Z,16.80
2022-09-01T02:08:04.467Z,18.48
2022-09-01T02:11:11.114Z,16.80
2022-09-01T02:14:21.628Z,17.15
2022-09-01T02:17:27.237Z,16.80
2022-09-01T02:20:32.972Z,17.75
2022-09-01T02:23:36.757Z,16.67
2022-09-01T02:26:45.995Z,16.40
2022-09-01T02:29:55.476Z,17.23
2022-09-01T02:32:59.691Z,16.17
2022-09-01T02:36:05.935Z,17.48
2022-09-01T02:39:11.153Z,16.80
2022-09-01T02:42:17.212Z,16.30
2022-09-01T02:45:20.744Z,15.65
2022-09-01T02:48:30.245Z,15.23
2022-09-01T02:51:34.625Z,15.40
2022-09-01T02:54:37.933Z,15.23
2022-09-01T02:57:42.649Z,15.00
2022-09-01T03:00:47.039Z,14.60
2022-09-01T03:03:50.924Z,14.40
2022-09-01T03:06:55.240Z,14.73
2022-09-01T03:09:58.907Z,15.23
2022-09-01T03:13:06.723Z,13.90
2022-09-01T03:16:10.980Z,15.23
2022-09-01T03:19:15.223Z,14.10
2022-09-01T03:22:19.282Z,14.55
2022-09-01T03:25:25.216Z,14.57
2022-09-01T03:28:31.079Z,14.10
2022-09-01T03:31:34.839Z,15.82
2022-09-01T03:34:38.804Z,15.23
2022-09-01T03:37:44.403Z,14.73
2022-09-01T03:40:48.468Z,15.27
2022-09-01T03:43:55.169Z,15.95
2022-09-01T03:46:58.595Z,15.40
2022-09-01T03:50:02.172Z,13.90
2022-09-01T03:53:07.055Z,14.18
2022-09-01T03:56:11.541Z,15.05
2022-09-01T03:59:17.892Z,13.60
2022-09-01T04:02:23.783Z,15.00
2022-09-01T04:05:30.100Z,14.85
2022-09-01T04:08:35.148Z,15.07
2022-09-01T04:11:45.602Z,15.23
2022-09-01T04:14:52.330Z,15.30
2022-09-01T04:18:20.280Z,15.82
2022-09-01T04:21:25.278Z,15.15
2022-09-01T04:24:31.955Z,14.85
2022-09-01T04:27:36.311Z,14.73
2022-09-01T04:30:42.476Z,14.45
2022-09-01T04:33:53.962Z,14.75
2022-09-01T04:36:58.987Z,15.45
2022-09-01T04:40:02.451Z,14.20
2022-09-01T04:43:07.854Z,14.68
2022-09-01T04:46:13.289Z,14.32
2022-09-01T04:49:20.771Z,13.27
2022-09-01T04:52:24.061Z,12.77
2022-09-01T04:55:29.710Z,12.35
2022-09-01T04:58:34.217Z,12.02
2022-09-01T05:01:45.334Z,12.30
2022-09-01T05:04:55.242Z,11.48
2022-09-01T05:07:58.898Z,12.15
2022-09-01T05:11:08.016Z,11.60
2022-09-01T05:14:22.543Z,11.65
2022-09-01T05:17:29.355Z,10.45
2022-09-01T05:20:33.641Z,11.00
2022-09-01T05:23:37.680Z,11.52
2022-09-01T05:26:43.735Z,10.98
2022-09-01T05:29:49.813Z,11.07
2022-09-01T05:32:55.158Z,11.20
2022-09-01T05:36:01.344Z,10.80
2022-09-01T05:39:07.052Z,12.43
2022-09-01T05:42:10.496Z,12.82
2022-09-01T05:45:18.283Z,12.82
2022-09-01T05:48:23.923Z,14.15
2022-09-01T05:51:44.432Z,12.90
2022-09-01T05:54:50.045Z,12.23
2022-09-01T05:57:55.366Z,11.60
2022-09-01T06:00:59.386Z,12.68
2022-09-01T06:04:06.527Z,11.40
2022-09-01T06:07:16.329Z,11.65
2022-09-01T06:10:30.675Z,10.98
2022-09-01T06:13:34.022Z,10.68
2022-09-01T06:16:38.403Z,10.45
2022-09-01T06:19:43.663Z,10.73
2022-09-01T06:22:47.840Z,11.00
2022-09-01T06:25:52.603Z,10.25
2022-09-01T06:29:00.023Z,10.90
2022-09-01T06:32:08.490Z,10.52
2022-09-01T06:35:13.789Z,10.40
2022-09-01T06:38:17.695Z,9.80
2022-09-01T06:41:24.579Z,10.77
2022-09-01T06:44:28.315Z,10.32
2022-09-01T06:47:37.589Z,10.90
2022-09-01T06:54:11.318Z,10.52
2022-09-01T07:00:42.340Z,10.80
2022-09-01T07:03:50.787Z,10.80
2022-09-01T07:07:54.444Z,10.48
2022-09-01T07:14:15.496Z,10.68
2022-09-01T07:17:22.920Z,11.45
2022-09-01T07:20:29.335Z,10.48
2022-09-01T07:24:10.604Z,10.23
2022-09-01T07:27:07.699Z,9.77
2022-09-01T07:30:12.677Z,10.27
2022-09-01T07:44:15.073Z,11.23
2022-09-01T07:47:54.950Z,10.20
2022-09-01T07:54:24.113Z,10.95
2022-09-01T07:57:29.603Z,9.45
2022-09-01T08:00:34.442Z,9.98
2022-09-01T08:03:42.971Z,9.13
2022-09-01T08:06:47.928Z,8.55
2022-09-01T08:09:56.036Z,8.40
2022-09-01T08:13:07.399Z,9.50
2022-09-01T08:16:19.582Z,9.95
2022-09-01T08:19:24.954Z,8.68
2022-09-01T08:22:41.049Z,8.30
2022-09-01T08:25:54.575Z,7.65
2022-09-01T08:28:59.544Z,9.00
2022-09-01T08:32:12.073Z,9.55
2022-09-01T08:35:16.420Z,8.35
2022-09-01T08:38:21.051Z,9.43
2022-09-01T08:41:40.598Z,9.68
2022-09-01T08:45:02.927Z,9.20
2022-09-01T08:48:57.285Z,9.45
2022-09-01T08:51:44.640Z,9.45
2022-09-01T08:54:51.632Z,8.40
2022-09-01T08:57:59.777Z,9.32
2022-09-01T09:01:14.624Z,8.77
2022-09-01T09:04:32.892Z,9.63
2022-09-01T09:08:07.389Z,9.20
2022-09-01T09:11:24.570Z,8.60
2022-09-01T09:14:38.694Z,7.93
2022-09-01T09:17:56.039Z,7.85
2022-09-01T09:21:10.029Z,7.50
2022-09-01T09:24:22.831Z,8.60
2022-09-01T09:27:28.767Z,7.65
2022-09-01T09:30:33.204Z,6.90
2022-09-01T09:33:51.674Z,6.47
2022-09-01T09:37:02.186Z,6.82
2022-09-01T09:40:12.593Z,6.22
2022-09-01T09:43:18.706Z,6.15
2022-09-01T09:46:26.654Z,6.18
2022-09-01T09:49:35.189Z,6.65
2022-09-01T09:52:40.943Z,6.65
2022-09-01T09:56:01.205Z,6.57
2022-09-01T09:59:29.391Z,6.00
2022-09-01T10:02:45.319Z,6.68
2022-09-01T10:05:52.362Z,6.60
2022-09-01T10:08:56.112Z,6.90
2022-09-01T10:12:00.957Z,6.55
2022-09-01T10:15:12.577Z,6.68
2022-09-01T10:18:21.929Z,7.15
2022-09-01T10:21:38.282Z,6.88
2022-09-01T10:24:44.684Z,6.70
2022-09-01T10:27:54.854Z,6.78
2022-09-01T10:30:59.873Z,6.50
2022-09-01T10:34:05.635Z,6.40
2022-09-01T10:37:16.015Z,6.05
2022-09-01T10:40:36.181Z,5.78
2022-09-01T10:43:49.159Z,6.40
2022-09-01T10:46:59.951Z,6.05
2022-09-01T10:50:24.128Z,6.38
2022-09-01T10:53:41.320Z,6.55
2022-09-01T10:56:51.369Z,6.57
2022-09-01T10:59:58.159Z,6.75
2022-09-01T11:03:31.962Z,6.85
2022-09-01T11:07:26.885Z,6.85
2022-09-01T11:10:38.195Z,6.90
2022-09-01T11:13:50.089Z,6.72
2022-09-01T11:17:15.828Z,6.75
2022-09-01T11:20:26.236Z,6.25
2022-09-01T11:23:31.489Z,6.70
2022-09-01T11:26:51.213Z,5.63
2022-09-01T11:29:57.656Z,6.55
2022-09-01T11:33:11.048Z,6.05
2022-09-01T11:36:23.622Z,5.78
2022-09-01T11:39:37.193Z,5.88
2022-09-01T11:42:46.740Z,6.80
2022-09-01T11:46:00.691Z,6.18
2022-09-01T11:49:08.783Z,5.00
2022-09-01T11:52:17.494Z,6.53
2022-09-01T11:55:30.635Z,5.43
2022-09-01T11:58:39.427Z,5.20
2022-09-01T12:01:43.357Z,5.75
2022-09-01T12:04:46.756Z,6.00
2022-09-01T12:07:50.081Z,5.38
2022-09-01T12:11:05.323Z,5.47
2022-09-01T12:14:13.286Z,5.00
2022-09-01T12:17:22.034Z,4.53
2022-09-01T12:20:31.164Z,4.50
2022-09-01T12:23:36.788Z,5.10
2022-09-01T12:26:40.875Z,5.28
2022-09-01T12:29:45.985Z,5.57
2022-09-01T12:32:49.970Z,4.95
2022-09-01T12:35:58.846Z,5.13
2022-09-01T12:39:21.397Z,5.60
2022-09-01T12:42:28.566Z,6.03
2022-09-01T12:45:43.953Z,5.72
2022-09-01T12:48:49.533Z,5.75
2022-09-01T12:52:07.842Z,4.88
2022-09-01T12:58:41.684Z,5.68
2022-09-01T13:01:46.580Z,7.25
2022-09-01T13:04:49.994Z,5.15
2022-09-01T13:07:55.547Z,5.22
2022-09-01T13:11:03.015Z,5.50
2022-09-01T13:14:06.409Z,5.47
2022-09-01T13:17:14.277Z,5.13
2022-09-01T13:20:18.346Z,5.72
2022-09-01T13:23:22.452Z,5.57
2022-09-01T13:26:26.470Z,6.47
2022-09-01T13:29:29.804Z,5.78
2022-09-01T13:32:34.735Z,6.60
2022-09-01T13:35:38.363Z,5.55
2022-09-01T13:38:42.342Z,5.70
2022-09-01T13:41:47.280Z,5.95
2022-09-01T13:44:54.048Z,5.43
2022-09-01T13:48:16.668Z,6.50
2022-09-01T13:51:26.886Z,6.45
2022-09-01T13:54:30.204Z,6.60
2022-09-01T13:57:35.868Z,6.20
2022-09-01T14:00:42.379Z,6.05
2022-09-01T14:03:51.865Z,7.25
2022-09-01T14:06:55.508Z,6.57
2022-09-01T14:09:58.773Z,6.10
2022-09-01T14:13:02.215Z,6.20
2022-09-01T14:16:12.334Z,6.80
2022-09-01T14:19:17.268Z,6.45
2022-09-01T14:22:21.235Z,7.03
2022-09-01T14:25:26.071Z,6.72
2022-09-01T14:28:29.458Z,7.03
2022-09-01T14:31:32.743Z,6.22
2022-09-01T14:34:37.590Z,6.88
2022-09-01T14:37:41.879Z,7.22
2022-09-01T14:40:45.325Z,6.90
2022-09-01T14:43:50.051Z,7.40
2022-09-01T14:46:53.814Z,7.18
2022-09-01T14:49:58.727Z,6.57
2022-09-01T14:53:03.964Z,6.65
2022-09-01T14:56:07.671Z,6.90
2022-09-01T14:59:11.037Z,7.80
2022-09-01T15:02:14.430Z,7.82
2022-09-01T15:05:19.811Z,7.28
2022-09-01T15:08:24.062Z,7.65
2022-09-01T15:11:28.615Z,7.35
2022-09-01T15:14:33.560Z,6.88
2022-09-01T15:17:37.354Z,6.93
2022-09-01T15:20:46.350Z,7.35
2022-09-01T15:23:54.118Z,7.07
2022-09-01T15:26:57.456Z,8.25
2022-09-01T15:30:00.821Z,7.63
2022-09-01T15:33:05.308Z,7.85
2022-09-01T15:36:18.657Z,7.80
2022-09-01T15:39:21.985Z,7.40
2022-09-01T15:42:25.302Z,7.75
2022-09-01T15:45:30.249Z,8.23
2022-09-01T15:48:33.571Z,8.10
2022-09-01T15:51:41.367Z,8.23
2022-09-01T15:54:46.242Z,8.07
2022-09-01T15:57:51.031Z,7.93
2022-09-01T16:00:57.144Z,8.23
2022-09-01T16:04:01.338Z,8.18
2022-09-01T16:07:06.206Z,7.18
2022-09-01T16:10:12.232Z,7.90
2022-09-01T16:13:15.570Z,8.02
2022-09-01T16:16:35.263Z,7.68
2022-09-01T16:19:51.009Z,7.82
2022-09-01T16:23:00.017Z,8.15
2022-09-01T16:26:03.368Z,8.38
2022-09-01T16:29:13.868Z,8.18
2022-09-01T16:32:20.030Z,7.78
2022-09-01T16:35:28.510Z,9.82
2022-09-01T16:38:42.441Z,8.38
2022-09-01T16:41:56.323Z,9.18
2022-09-01T16:45:09.269Z,9.30
2022-09-01T16:48:20.613Z,9.15
2022-09-01T16:51:32.840Z,9.25
2022-09-01T16:54:49.486Z,9.70
2022-09-01T16:58:01.683Z,9.18
2022-09-01T17:01:18.039Z,9.68
2022-09-01T17:04:33.705Z,9.10
2022-09-01T17:07:45.607Z,9.70
2022-09-01T17:10:56.414Z,8.80
2022-09-01T17:14:02.892Z,8.50
2022-09-01T17:17:10.971Z,8.30
2022-09-01T17:20:14.977Z,8.20
2022-09-01T17:23:28.281Z,8.90
2022-09-01T17:26:36.227Z,9.65
2022-09-01T17:29:44.866Z,8.63
2022-09-01T17:33:15.299Z,8.80
2022-09-01T17:36:32.220Z,9.50
2022-09-01T17:39:49.440Z,9.13
2022-09-01T17:43:02.754Z,9.98
2022-09-01T17:46:14.319Z,9.27
2022-09-01T17:49:25.415Z,9.68
2022-09-01T17:52:43.535Z,9.40
2022-09-01T17:56:00.744Z,9.98
2022-09-01T17:59:15.792Z,9.77
2022-09-01T18:02:40.491Z,9.43
2022-09-01T18:05:46.123Z,9.85
2022-09-01T18:08:55.132Z,10.35
2022-09-01T18:12:03.327Z,10.90
2022-09-01T18:15:12.244Z,11.30
2022-09-01T18:18:28.800Z,11.93
2022-09-01T18:21:37.435Z,11.23
2022-09-01T18:24:51.348Z,12.85
2022-09-01T18:27:54.738Z,13.48
2022-09-01T18:31:08.003Z,11.23
2022-09-01T18:34:21.752Z,10.25
2022-09-01T18:37:33.707Z,9.43
2022-09-01T18:40:45.936Z,10.40
2022-09-01T18:43:57.664Z,10.20
2022-09-01T18:47:07.787Z,10.10
2022-09-01T18:50:19.759Z,9.80
2022-09-01T18:53:36.376Z,13.25
2022-09-01T18:56:46.254Z,14.95
2022-09-01T19:00:17.041Z,15.82
2022-09-01T19:03:28.842Z,11.43
2022-09-01T19:06:40.757Z,11.40
2022-09-01T19:09:52.511Z,10.40
2022-09-01T19:13:03.702Z,10.50
2022-09-01T19:16:15.174Z,10.35
2022-09-01T19:19:31.203Z,10.60
2022-09-01T19:22:42.271Z,9.57
2022-09-01T19:25:46.055Z,8.85
2022-09-01T19:28:52.746Z,9.32
2022-09-01T19:32:02.019Z,8.18
2022-09-01T19:35:11.979Z,8.15
2022-09-01T19:38:20.665Z,7.53
2022-09-01T19:41:29.886Z,7.82
2022-09-01T19:44:44.563Z,6.78
2022-09-01T19:47:52.596Z,7.45
2022-09-01T19:51:04.561Z,6.85
2022-09-01T19:54:16.193Z,7.72
2022-09-01T19:57:27.220Z,7.00
2022-09-01T20:00:44.248Z,7.03
2022-09-01T20:03:54.050Z,7.40
2022-09-01T20:07:01.362Z,8.77
2022-09-01T20:10:23.344Z,7.75
2022-09-01T20:13:44.804Z,6.53
2022-09-01T20:16:52.022Z,7.28
2022-09-01T20:20:01.509Z,7.22
2022-09-01T20:23:20.888Z,7.40
2022-09-01T20:26:27.229Z,7.25
2022-09-01T20:29:38.945Z,7.50
2022-09-01T20:32:51.500Z,8.00
2022-09-01T20:35:59.706Z,7.05
2022-09-01T20:39:26.993Z,7.72
2022-09-01T20:42:40.467Z,8.45
2022-09-01T20:45:45.846Z,7.50
2022-09-01T20:48:49.792Z,7.50
2022-09-01T20:51:58.980Z,6.85
2022-09-01T20:55:13.700Z,7.30
2022-09-01T20:58:27.814Z,7.75
2022-09-01T21:01:38.508Z,6.97
2022-09-01T21:04:50.211Z,7.68
2022-09-01T21:08:08.563Z,7.40
2022-09-01T21:11:27.551Z,7.70
2022-09-01T21:14:52.338Z,7.50
2022-09-01T21:18:11.544Z,8.50
2022-09-01T21:21:24.596Z,7.20
2022-09-01T21:24:27.953Z,7.13
2022-09-01T21:27:38.273Z,8.13
2022-09-01T21:30:41.639Z,7.55
2022-09-01T21:33:44.945Z,8.15
2022-09-01T21:36:48.315Z,7.78
2022-09-01T21:39:53.151Z,8.35
2022-09-01T21:43:02.242Z,8.10
2022-09-01T21:46:08.209Z,8.20
2022-09-01T21:49:14.279Z,7.90
2022-09-01T21:52:17.758Z,8.75
2022-09-01T21:55:23.249Z,8.68
2022-09-01T21:58:28.083Z,8.65
2022-09-01T22:01:32.282Z,8.68
2022-09-01T22:04:37.620Z,8.98
2022-09-01T22:07:42.760Z,8.85
2022-09-01T22:10:49.229Z,8.32
2022-09-01T22:13:53.850Z,8.93
2022-09-01T22:17:01.064Z,8.63
2022-09-01T22:20:09.508Z,9.20
2022-09-01T22:23:13.958Z,9.07
2022-09-01T22:26:24.185Z,8.65
2022-09-01T22:29:28.977Z,8.80
2022-09-01T22:32:33.950Z,8.55
2022-09-01T22:35:41.864Z,8.15
2022-09-01T22:38:45.208Z,8.77
2022-09-01T22:41:48.600Z,9.30
2022-09-01T22:44:53.939Z,9.07
2022-09-01T22:47:57.310Z,8.73
2022-09-01T22:51:05.064Z,9.18
2022-09-01T22:54:11.450Z,9.50
2022-09-01T22:57:15.075Z,9.00
2022-09-01T23:00:19.903Z,8.60
2022-09-01T23:03:24.155Z,9.32
2022-09-01T23:06:28.933Z,8.90
2022-09-01T23:09:32.381Z,9.18
2022-09-01T23:12:35.625Z,9.18
2022-09-01T23:15:40.426Z,9.65
2022-09-01T23:18:45.914Z,9.18
2022-09-01T23:21:49.787Z,9.25
2022-09-01T23:24:53.124Z,8.15
2022-09-01T23:27:56.434Z,9.00
2022-09-01T23:31:01.485Z,8.80
2022-09-01T23:34:06.097Z,8.98
2022-09-01T23:37:09.434Z,8.45
2022-09-01T23:40:13.091Z,8.90
2022-09-01T23:43:17.657Z,9.02
2022-09-01T23:46:25.281Z,9.93
2022-09-01T23:49:28.595Z,9.38
2022-09-01T23:52:32.871Z,9.55
2022-09-01T23:55:36.328Z,9.43
2022-09-01T23:58:40.525Z,9.60
